createdAt,value
2022-09-07T00:02:07.938Z,14.70
2022-09-07T00:04:43.651Z,10.40
2022-09-07T00:07:10.380Z,9.60
2022-09-07T00:09:37.063Z,10.98
2022-09-07T00:12:03.917Z,9.80
2022-09-07T00:14:30.776Z,9.18
2022-09-07T00:17:00.344Z,8.47
2022-09-07T00:19:27.006Z,12.52
2022-09-07T00:21:53.636Z,12.57
2022-09-07T00:24:20.286Z,7.75
2022-09-07T00:26:46.895Z,8.48
2022-09-07T00:29:13.533Z,9.00
2022-09-07T00:31:40.255Z,12.75
2022-09-07T00:34:06.952Z,8.98
2022-09-07T00:36:33.649Z,14.38
2022-09-07T00:39:00.269Z,16.83
2022-09-07T00:41:26.966Z,13.97
2022-09-07T00:44:00.447Z,11.40
2022-09-07T00:46:30.598Z,9.80
2022-09-07T00:49:12.087Z,15.77
2022-09-07T00:51:55.843Z,11.73
2022-09-07T00:54:28.371Z,12.40
2022-09-07T00:56:55.210Z,8.57
2022-09-07T00:59:34.549Z,9.50
2022-09-07T01:02:01.865Z,8.05
2022-09-07T01:04:30.371Z,8.40
2022-09-07T01:06:57.476Z,8.20
2022-09-07T01:09:33.041Z,8.25
2022-09-07T01:12:01.575Z,11.25
2022-09-07T01:14:42.283Z,7.00
2022-09-07T01:17:41.604Z,13.38
2022-09-07T01:20:29.226Z,8.87
2022-09-07T01:23:26.407Z,8.00
2022-09-07T01:26:11.874Z,8.20
2022-09-07T01:29:04.332Z,6.43
2022-09-07T01:32:02.406Z,6.05
2022-09-07T01:34:29.188Z,4.30
2022-09-07T01:37:35.500Z,6.53
2022-09-07T01:40:05.190Z,6.80
2022-09-07T01:42:56.219Z,5.70
2022-09-07T01:45:30.391Z,11.45
2022-09-07T01:48:26.194Z,5.93
2022-09-07T01:55:22.459Z,9.55
2022-09-07T01:57:58.233Z,7.20
2022-09-07T02:00:25.242Z,7.60
2022-09-07T02:03:00.605Z,8.53
2022-09-07T02:05:35.853Z,9.10
2022-09-07T02:08:10.631Z,9.00
2022-09-07T02:10:42.218Z,3.65
2022-09-07T02:13:35.291Z,6.45
2022-09-07T02:16:09.099Z,8.03
2022-09-07T02:18:58.581Z,3.75
2022-09-07T02:21:48.636Z,7.43
2022-09-07T02:24:26.226Z,5.43
2022-09-07T02:29:57.273Z,7.23
2022-09-07T02:32:23.962Z,4.07
2022-09-07T02:34:57.380Z,5.78
2022-09-07T02:37:27.062Z,4.55
2022-09-07T02:40:00.074Z,6.55
2022-09-07T02:42:42.560Z,3.70
2022-09-07T02:45:12.036Z,5.55
2022-09-07T02:47:53.606Z,4.20
2022-09-07T02:50:39.415Z,6.60
2022-09-07T02:53:31.465Z,6.35
2022-09-07T02:56:25.051Z,4.83
2022-09-07T02:59:07.425Z,4.95
2022-09-07T03:01:55.683Z,4.78
2022-09-07T03:04:48.971Z,6.78
2022-09-07T03:07:26.644Z,6.90
2022-09-07T03:09:56.307Z,4.27
2022-09-07T03:12:23.256Z,5.93
2022-09-07T03:14:50.551Z,4.90
2022-09-07T03:17:17.269Z,4.45
2022-09-07T03:19:43.951Z,4.15
2022-09-07T03:22:27.972Z,5.50
2022-09-07T03:24:54.587Z,5.90
2022-09-07T03:27:24.660Z,6.55
2022-09-07T03:29:51.453Z,4.43
2022-09-07T03:32:25.564Z,4.75
2022-09-07T03:34:55.175Z,3.40
2022-09-07T03:37:25.007Z,4.75
2022-09-07T03:39:51.831Z,6.20
2022-09-07T03:42:18.671Z,5.57
2022-09-07T03:44:45.320Z,3.85
2022-09-07T03:47:12.592Z,5.30
2022-09-07T03:49:39.425Z,2.97
2022-09-07T03:52:06.178Z,4.13
2022-09-07T03:54:34.946Z,4.72
2022-09-07T03:57:15.090Z,4.30
2022-09-07T03:59:41.754Z,3.83
2022-09-07T04:02:11.523Z,10.15
2022-09-07T04:04:38.434Z,4.55
2022-09-07T04:07:05.410Z,5.70
2022-09-07T04:09:32.290Z,5.93
2022-09-07T04:11:58.984Z,3.53
2022-09-07T04:14:34.594Z,4.68
2022-09-07T04:17:01.298Z,4.72
2022-09-07T04:19:29.556Z,7.35
2022-09-07T04:21:56.219Z,6.53
2022-09-07T04:24:31.784Z,6.30
2022-09-07T04:26:58.592Z,7.80
2022-09-07T04:29:25.279Z,5.68
2022-09-07T04:31:51.916Z,10.10
2022-09-07T04:34:18.542Z,5.75
2022-09-07T04:36:45.202Z,3.83
2022-09-07T04:39:14.348Z,5.88
2022-09-07T04:41:41.048Z,5.95
2022-09-07T04:44:07.801Z,6.78
2022-09-07T04:46:36.537Z,4.68
2022-09-07T04:49:12.380Z,7.30
2022-09-07T04:51:39.771Z,5.03
2022-09-07T04:54:06.621Z,7.15
2022-09-07T04:56:33.950Z,11.55
2022-09-07T04:59:03.817Z,9.77
2022-09-07T05:01:30.634Z,10.57
2022-09-07T05:04:02.472Z,5.78
2022-09-07T05:06:29.536Z,8.70
2022-09-07T05:11:49.318Z,6.38
2022-09-07T05:14:22.375Z,9.73
2022-09-07T05:16:49.158Z,8.32
2022-09-07T05:19:15.789Z,7.82
2022-09-07T05:21:42.728Z,12.63
2022-09-07T05:24:18.481Z,9.75
2022-09-07T05:26:45.192Z,9.13
2022-09-07T05:31:58.567Z,9.57
2022-09-07T05:36:55.136Z,8.07
2022-09-07T05:40:18.064Z,7.80
2022-09-07T05:42:44.727Z,6.53
2022-09-07T05:45:11.717Z,11.05
2022-09-07T05:47:38.533Z,10.18
2022-09-07T05:50:07.169Z,7.53
2022-09-07T05:52:36.351Z,9.73
2022-09-07T05:55:26.213Z,6.93
2022-09-07T05:57:57.850Z,8.50
2022-09-07T06:00:27.891Z,7.65
2022-09-07T06:02:54.581Z,9.00
2022-09-07T06:05:21.283Z,8.70
2022-09-07T06:07:48.082Z,7.22
2022-09-07T06:13:03.563Z,13.68
2022-09-07T06:15:32.729Z,12.98
2022-09-07T06:18:01.822Z,9.63
2022-09-07T06:20:28.440Z,10.95
2022-09-07T06:22:55.023Z,12.68
2022-09-07T06:25:21.791Z,10.98
2022-09-07T06:27:49.439Z,11.70
2022-09-07T06:30:17.649Z,10.23
2022-09-07T06:32:44.783Z,13.02
2022-09-07T06:35:13.761Z,13.43
2022-09-07T06:37:41.122Z,9.43
2022-09-07T06:40:08.703Z,10.20
2022-09-07T06:42:35.542Z,9.30
2022-09-07T06:45:02.375Z,9.15
2022-09-07T06:47:37.527Z,11.55
2022-09-07T06:56:34.752Z,12.13
2022-09-07T07:02:23.920Z,10.50
2022-09-07T07:07:55.530Z,11.52
2022-09-07T07:10:38.494Z,12.03
2022-09-07T07:13:05.331Z,10.52
2022-09-07T07:15:50.180Z,13.20
2022-09-07T07:18:38.684Z,13.27
2022-09-07T07:29:32.091Z,15.75
2022-09-07T07:32:10.942Z,15.68
2022-09-07T11:00:34.157Z,8.80
2022-09-07T11:31:04.070Z,5.73
2022-09-07T11:40:34.491Z,8.23
2022-09-07T11:58:28.395Z,7.53
2022-09-07T12:22:39.996Z,10.23
2022-09-07T12:36:48.398Z,8.93
2022-09-07T12:58:41.250Z,6.97
2022-09-07T13:01:40.189Z,8.37
2022-09-07T13:04:47.874Z,7.65
2022-09-07T13:10:33.763Z,6.07
2022-09-07T13:19:47.007Z,7.28
2022-09-07T13:22:36.011Z,7.03
2022-09-07T13:25:33.258Z,7.88
2022-09-07T13:28:31.943Z,7.38
2022-09-07T13:31:23.631Z,7.63
2022-09-07T13:33:56.054Z,7.90
2022-09-07T13:45:03.541Z,9.40
2022-09-07T13:51:05.953Z,12.07
2022-09-07T13:53:42.350Z,7.93
2022-09-07T13:56:41.900Z,7.32
2022-09-07T13:59:28.200Z,7.67
2022-09-07T14:02:03.880Z,7.43
2022-09-07T14:26:20.614Z,8.57
2022-09-07T14:28:54.811Z,5.67
2022-09-07T14:41:30.176Z,8.10
2022-09-07T14:51:34.997Z,7.18
2022-09-07T14:54:43.227Z,7.13
2022-09-07T14:57:31.397Z,6.75
2022-09-07T15:00:31.456Z,5.20
2022-09-07T15:10:34.386Z,7.40
2022-09-07T15:13:41.707Z,9.48
2022-09-07T15:16:39.126Z,12.17
2022-09-07T15:32:28.707Z,6.50
2022-09-07T15:54:13.820Z,7.13
2022-09-07T16:00:22.286Z,8.35
2022-09-07T16:03:07.496Z,7.60
2022-09-07T16:05:42.453Z,9.73
2022-09-07T16:08:25.627Z,7.80
2022-09-07T16:11:24.001Z,8.05
2022-09-07T16:14:04.483Z,10.48
2022-09-07T16:20:32.232Z,8.82
2022-09-07T16:26:05.301Z,7.33
2022-09-07T17:01:00.674Z,6.07
2022-09-07T17:03:28.400Z,8.10
2022-09-07T17:14:47.128Z,9.02
2022-09-07T17:17:13.742Z,8.98
2022-09-07T17:19:40.582Z,9.03
2022-09-07T17:22:09.177Z,9.65
2022-09-07T17:24:48.586Z,7.70
2022-09-07T17:27:18.084Z,10.73
2022-09-07T17:29:44.873Z,9.57
2022-09-07T17:32:26.927Z,12.33
2022-09-07T17:34:56.835Z,6.57
2022-09-07T17:37:23.529Z,6.13
2022-09-07T17:39:50.265Z,7.07
2022-09-07T17:42:17.037Z,11.30
2022-09-07T17:44:53.088Z,10.30
2022-09-07T17:47:20.003Z,10.00
2022-09-07T17:49:47.911Z,7.57
2022-09-07T17:52:14.549Z,6.30
2022-09-07T17:54:42.034Z,8.15
2022-09-07T17:57:09.007Z,8.93
2022-09-07T18:05:07.022Z,8.57
2022-09-07T18:07:34.045Z,12.40
2022-09-07T18:10:00.623Z,12.87
2022-09-07T18:12:27.220Z,9.20
2022-09-07T18:14:54.105Z,16.27
2022-09-07T18:17:42.471Z,9.95
2022-09-07T18:22:53.024Z,12.80
2022-09-07T18:25:20.690Z,15.13
2022-09-07T18:29:03.013Z,42.80
2022-09-07T18:30:38.085Z,21.50
2022-09-07T18:33:07.148Z,20.30
2022-09-07T18:35:34.175Z,13.63
2022-09-07T18:38:01.768Z,16.92
2022-09-07T18:40:28.412Z,19.50
2022-09-07T18:43:04.573Z,32.75
2022-09-07T18:45:43.465Z,24.33
2022-09-07T18:48:25.079Z,14.07
2022-09-07T18:51:09.675Z,41.47
2022-09-07T18:53:39.851Z,41.55
2022-09-07T18:58:58.183Z,12.70
2022-09-07T19:01:33.825Z,25.67
2022-09-07T19:04:03.973Z,30.65
2022-09-07T19:06:30.571Z,36.78
2022-09-07T19:09:07.595Z,33.70
2022-09-07T19:11:41.668Z,34.20
2022-09-07T19:14:17.438Z,62.37
2022-09-07T19:17:04.843Z,54.40
2022-09-07T19:19:36.011Z,63.58
2022-09-07T19:22:30.320Z,51.13
2022-09-07T19:54:43.307Z,14.02
2022-09-07T19:57:10.112Z,14.63
2022-09-07T19:59:37.001Z,13.43
2022-09-07T20:02:24.023Z,12.63
2022-09-07T20:04:50.759Z,8.27
2022-09-07T20:07:34.010Z,11.10
2022-09-07T20:10:00.797Z,10.47
2022-09-07T20:12:27.456Z,10.65
2022-09-07T20:14:54.190Z,9.15
2022-09-07T20:17:20.820Z,30.70
2022-09-07T20:19:50.407Z,20.20
2022-09-07T20:22:17.097Z,20.60
2022-09-07T20:24:56.223Z,11.77
2022-09-07T20:27:25.733Z,14.13
2022-09-07T20:29:53.735Z,13.10
2022-09-07T20:32:22.799Z,14.48
2022-09-07T20:35:17.123Z,12.50
2022-09-07T20:37:48.765Z,11.68
2022-09-07T20:40:23.986Z,12.85
2022-09-07T20:43:02.242Z,9.43
2022-09-07T20:45:35.365Z,8.85
2022-09-07T20:48:02.160Z,11.73
2022-09-07T20:50:31.413Z,14.65
2022-09-07T20:53:04.003Z,12.07
2022-09-07T20:55:30.637Z,13.18
2022-09-07T20:58:09.104Z,11.20
2022-09-07T21:00:35.832Z,9.23
2022-09-07T21:03:02.622Z,10.65
2022-09-07T21:05:37.687Z,16.23
2022-09-07T21:08:04.796Z,9.15
2022-09-07T21:26:54.919Z,13.93
2022-09-07T21:29:26.674Z,9.98
2022-09-07T21:32:04.001Z,16.45
2022-09-07T21:34:31.264Z,13.70
2022-09-07T21:37:03.599Z,15.52
2022-09-07T21:50:27.558Z,11.27
2022-09-07T21:52:55.133Z,11.07
2022-09-07T21:55:24.192Z,8.93
2022-09-07T21:57:51.084Z,17.02
2022-09-07T22:06:36.956Z,8.30
2022-09-07T22:09:04.633Z,10.68
2022-09-07T22:11:45.285Z,7.85
2022-09-07T22:14:40.036Z,7.78
2022-09-07T22:17:06.992Z,9.80
2022-09-07T22:19:36.592Z,10.67
2022-09-07T22:22:11.126Z,8.88
2022-09-07T22:24:37.979Z,11.25
2022-09-07T22:27:04.857Z,9.50
2022-09-07T22:29:31.652Z,12.43
2022-09-07T22:32:29.354Z,10.67
2022-09-07T22:35:31.026Z,8.07
2022-09-07T22:37:56.929Z,12.90
2022-09-07T22:40:24.094Z,15.82
2022-09-07T22:43:00.513Z,14.88
2022-09-07T22:45:32.677Z,8.10
2022-09-07T22:48:05.482Z,9.60
2022-09-07T22:50:57.210Z,9.75
2022-09-07T22:53:27.343Z,10.50
2022-09-07T22:55:54.914Z,10.60
2022-09-07T22:58:38.924Z,14.80
2022-09-07T23:01:18.241Z,11.38
2022-09-07T23:03:45.338Z,9.15
2022-09-07T23:06:21.580Z,19.25
2022-09-07T23:08:49.162Z,12.48
2022-09-07T23:11:25.543Z,10.23
2022-09-07T23:14:02.876Z,12.52
2022-09-07T23:16:42.670Z,18.33
2022-09-07T23:19:10.700Z,14.07
2022-09-07T23:21:37.825Z,13.43
2022-09-07T23:26:45.892Z,12.80
2022-09-07T23:29:24.056Z,13.93
2022-09-07T23:31:50.793Z,16.55
2022-09-07T23:34:17.497Z,11.30
2022-09-07T23:36:48.279Z,13.70
2022-09-07T23:39:14.952Z,15.77
2022-09-07T23:41:52.841Z,10.93
2022-09-07T23:44:19.809Z,14.18
2022-09-07T23:49:38.971Z,14.63
2022-09-07T23:52:14.508Z,15.10
2022-09-07T23:54:41.243Z,13.75
2022-09-07T23:57:17.022Z,15.00
2022-09-07T23:59:43.657Z,9.02
